Time;durP1;ratioP1;P1;durP2;ratioP2;P2;SDS_P1;SDS_P2;PMS_P1;PMS_P2;Temp;Humidity;BMP_temperature;BMP_pressure;BME280_temperature;BME280_humidity;BME280_pressure;Samples;Min_cycle;Max_cycle;Signal;HPM_P1;HPM_P2
2021/03/13 00:02:05;;;;;;;1.17;0.83;;;;;;;8.99;41.19;95010.94;5022854;28;20245;-83
2021/03/13 00:04:31;;;;;;;1.47;0.90;;;;;;;8.99;41.22;95001.47;5023009;28;20235;-83
2021/03/13 00:07:00;;;;;;;1.10;0.80;;;;;;;9.07;41.32;94994.63;5023232;28;20222;-82
2021/03/13 00:09:27;;;;;;;1.90;1.17;;;;;;;9.09;40.90;94997.78;5023393;28;20231;-84
2021/03/13 00:11:53;;;;;;;1.87;0.90;;;;;;;9.10;41.23;95009.66;5024118;28;20207;-82
2021/03/13 00:14:19;;;;;;;1.77;1.07;;;;;;;9.12;40.78;95002.56;5023660;28;20203;-81
2021/03/13 00:16:45;;;;;;;1.67;0.80;;;;;;;9.09;41.18;95005.50;5021863;28;20230;-83
2021/03/13 00:19:11;;;;;;;1.23;0.97;;;;;;;9.05;41.19;95005.06;5022569;28;20817;-82
2021/03/13 00:21:37;;;;;;;2.03;0.80;;;;;;;9.14;41.33;95004.00;5022686;28;20257;-82
2021/03/13 00:24:03;;;;;;;1.27;0.93;;;;;;;9.11;41.15;95006.91;5022136;28;20226;-82
2021/03/13 00:26:30;;;;;;;0.93;0.80;;;;;;;8.95;41.15;95015.63;5022851;28;20786;-83
2021/03/13 00:28:56;;;;;;;2.43;1.00;;;;;;;9.00;41.72;95009.97;5022116;28;20253;-83
2021/03/13 00:31:22;;;;;;;2.50;0.93;;;;;;;9.03;41.43;95013.94;5022664;28;20230;-85
2021/03/13 00:33:48;;;;;;;1.17;0.80;;;;;;;8.94;41.51;95016.59;5022356;28;20230;-82
2021/03/13 00:36:14;;;;;;;1.30;0.90;;;;;;;9.03;41.40;95026.78;5022210;28;20226;-82
2021/03/13 00:38:40;;;;;;;1.43;0.80;;;;;;;8.97;41.30;95031.66;5023045;28;20202;-82
2021/03/13 00:41:06;;;;;;;1.17;0.90;;;;;;;8.99;41.34;95022.00;5022247;28;20238;-83
2021/03/13 00:43:33;;;;;;;1.50;0.97;;;;;;;9.05;41.58;95017.09;5024623;28;20248;-84
2021/03/13 00:45:59;;;;;;;0.80;0.80;;;;;;;9.04;41.24;95029.19;5023768;28;20242;-82
2021/03/13 00:48:25;;;;;;;2.17;1.00;;;;;;;9.00;41.50;95021.03;5022110;28;20227;-81
2021/03/13 00:50:51;;;;;;;1.17;0.90;;;;;;;9.09;41.15;95028.59;5022008;28;20238;-83
2021/03/13 00:53:17;;;;;;;1.67;0.90;;;;;;;9.02;41.38;95020.84;5021804;28;20579;-83
2021/03/13 00:55:43;;;;;;;1.43;0.90;;;;;;;9.14;41.85;95014.25;5021778;28;20249;-84
2021/03/13 00:58:10;;;;;;;2.50;0.93;;;;;;;9.13;41.34;95009.31;5022215;28;20226;-82
2021/03/13 01:00:37;;;;;;;1.00;0.90;;;;;;;9.20;41.46;95007.59;5021213;28;20564;-83
2021/03/13 01:03:05;;;;;;;1.23;0.90;;;;;;;9.16;41.77;95002.03;5022262;28;20226;-84
2021/03/13 01:05:31;;;;;;;1.00;0.90;;;;;;;9.13;41.35;95004.97;5021685;28;20199;-82
2021/03/13 01:07:57;;;;;;;0.97;0.80;;;;;;;9.14;41.93;94998.06;5023309;28;20235;-83
2021/03/13 01:10:27;;;;;;;0.80;0.80;;;;;;;9.08;41.46;94999.56;5024797;28;20261;-81
2021/03/13 01:12:53;;;;;;;0.97;0.70;;;;;;;9.14;42.10;94998.06;5024425;28;20275;-82
2021/03/13 01:15:21;;;;;;;1.70;1.00;;;;;;;9.16;42.01;94994.34;5024995;28;20305;-82
2021/03/13 01:17:49;;;;;;;1.60;1.00;;;;;;;9.12;41.84;94987.97;5024601;28;20199;-84
2021/03/13 01:20:17;;;;;;;1.60;0.90;;;;;;;9.18;41.55;94981.31;5023473;28;20289;-84
2021/03/13 01:22:43;;;;;;;1.63;0.93;;;;;;;9.15;42.03;94994.50;5024227;28;20237;-84
2021/03/13 01:25:12;;;;;;;1.30;0.87;;;;;;;9.13;41.75;94983.63;5023485;28;20231;-83
2021/03/13 01:27:38;;;;;;;1.63;1.00;;;;;;;9.10;41.72;94986.56;5023534;28;20605;-84
2021/03/13 01:30:06;;;;;;;2.17;0.90;;;;;;;9.06;41.59;94991.25;5021973;28;20413;-84
2021/03/13 01:32:31;;;;;;;3.17;1.07;;;;;;;9.06;41.65;94986.13;5022910;28;20207;-84
2021/03/13 01:34:58;;;;;;;2.03;1.20;;;;;;;9.10;41.87;94989.91;5023246;28;20366;-82
2021/03/13 01:37:25;;;;;;;1.00;0.80;;;;;;;9.07;41.89;95003.09;5021878;28;20234;-84
2021/03/13 01:39:51;;;;;;;1.00;0.80;;;;;;;9.02;41.68;95002.09;5021924;28;20234;-82
2021/03/13 01:42:17;;;;;;;1.10;0.90;;;;;;;9.06;41.87;94993.81;5021693;28;20218;-82
2021/03/13 01:44:43;;;;;;;1.90;1.00;;;;;;;9.09;41.36;95000.38;5021948;28;20261;-83
2021/03/13 01:47:16;;;;;;;1.00;0.70;;;;;;;9.13;41.71;94983.63;5021700;28;20219;-83
2021/03/13 01:49:42;;;;;;;0.87;0.80;;;;;;;9.17;41.25;94990.78;5020059;28;20226;-84
2021/03/13 01:52:09;;;;;;;1.50;0.80;;;;;;;9.13;41.43;94984.41;5021746;28;20232;-82
2021/03/13 01:54:35;;;;;;;2.27;0.97;;;;;;;9.07;41.45;94986.91;5021487;28;20234;-84
2021/03/13 01:57:01;;;;;;;1.33;0.90;;;;;;;9.05;42.07;94981.94;5022426;28;20221;-82
2021/03/13 01:59:27;;;;;;;1.10;1.00;;;;;;;9.03;41.84;94995.97;5022074;28;20203;-82
2021/03/13 02:01:53;;;;;;;0.87;0.70;;;;;;;8.92;42.40;94981.81;5021065;28;20257;-83
2021/03/13 02:04:20;;;;;;;1.37;0.80;;;;;;;8.93;43.39;94973.94;5021161;28;20269;-82
2021/03/13 02:06:53;;;;;;;0.80;0.80;;;;;;;8.93;43.14;94968.81;5020329;28;20280;-84
2021/03/13 02:09:26;;;;;;;0.77;0.73;;;;;;;8.95;43.37;94971.19;5021067;28;20227;-82
2021/03/13 02:12:00;;;;;;;0.70;0.70;;;;;;;8.91;43.36;94967.38;5021258;28;20206;-82
2021/03/13 02:14:35;;;;;;;1.47;0.90;;;;;;;9.05;43.42;94965.75;5022037;28;20202;-83
2021/03/13 02:17:07;;;;;;;0.73;0.70;;;;;;;9.04;43.70;94972.69;5022724;28;20226;-82
2021/03/13 02:20:02;;;;;;;1.13;0.90;;;;;;;9.03;43.85;94955.69;5020914;28;20229;-83
2021/03/13 02:22:32;;;;;;;1.17;1.00;;;;;;;8.96;43.49;94965.88;5021201;28;20234;-83
2021/03/13 02:25:06;;;;;;;2.03;0.90;;;;;;;8.91;44.31;94954.56;5020653;28;20233;-81
2021/03/13 02:27:40;;;;;;;1.67;0.90;;;;;;;8.88;44.13;94954.91;5021603;28;20254;-84
2021/03/13 02:30:12;;;;;;;0.80;0.80;;;;;;;8.89;44.87;94954.72;5019924;28;20290;-83
2021/03/13 02:32:42;;;;;;;1.17;0.90;;;;;;;8.92;45.13;94944.09;5020793;28;20230;-81
2021/03/13 02:35:14;;;;;;;0.80;0.80;;;;;;;8.97;44.98;94957.19;5020792;28;20234;-82
2021/03/13 02:37:43;;;;;;;1.07;0.80;;;;;;;8.84;46.27;94944.25;5020606;28;20230;-84
2021/03/13 02:40:11;;;;;;;0.80;0.77;;;;;;;8.81;46.20;94944.59;5020166;28;20709;-83
2021/03/13 02:42:45;;;;;;;1.20;0.90;;;;;;;8.76;46.82;94946.09;5019565;28;20235;-83
2021/03/13 02:45:13;;;;;;;1.00;0.80;;;;;;;8.77;46.94;94943.34;5020864;28;20209;-82
2021/03/13 02:47:42;;;;;;;0.70;0.70;;;;;;;8.73;47.35;94941.31;5021020;28;20213;-83
2021/03/13 02:50:09;;;;;;;1.53;1.00;;;;;;;8.65;47.76;94942.25;5019336;28;20230;-84
2021/03/13 02:52:37;;;;;;;1.47;0.90;;;;;;;8.54;48.29;94942.69;5019946;28;20222;-83
2021/03/13 02:55:04;;;;;;;1.00;0.80;;;;;;;8.60;48.10;94947.91;5019392;28;20231;-83
2021/03/13 02:57:32;;;;;;;1.07;1.00;;;;;;;8.60;48.33;94931.72;5020191;28;20226;-82
2021/03/13 02:59:59;;;;;;;0.70;0.70;;;;;;;8.52;48.40;94930.03;5019854;28;20226;-82
2021/03/13 03:02:26;;;;;;;0.97;0.80;;;;;;;8.56;48.51;94931.28;5020644;28;20371;-82
2021/03/13 03:04:53;;;;;;;1.53;0.93;;;;;;;8.54;48.58;94925.53;5020639;28;20234;-83
2021/03/13 03:07:25;;;;;;;3.17;1.00;;;;;;;8.49;48.74;94932.97;5019574;28;20621;-84
2021/03/13 03:09:52;;;;;;;0.70;0.70;;;;;;;8.42;49.01;94929.53;5018814;28;20234;-84
2021/03/13 03:12:19;;;;;;;1.07;0.87;;;;;;;8.48;49.37;94925.44;5019011;28;20226;-84
2021/03/13 03:14:47;;;;;;;1.00;0.87;;;;;;;8.48;49.37;94930.56;5020434;28;20218;-82
2021/03/13 03:17:13;;;;;;;2.93;1.00;;;;;;;8.47;49.75;94932.34;5019198;28;20227;-82
2021/03/13 03:19:42;;;;;;;0.93;0.87;;;;;;;8.55;49.47;94934.81;5019530;28;20235;-82
2021/03/13 03:22:08;;;;;;;1.07;0.97;;;;;;;8.54;49.84;94938.34;5020132;28;20227;-83
2021/03/13 03:24:35;;;;;;;2.00;1.10;;;;;;;8.61;49.35;94923.06;5019754;28;20234;-81
2021/03/13 03:27:01;;;;;;;1.03;0.80;;;;;;;8.64;49.80;94935.53;5018969;28;20207;-83
2021/03/13 03:29:28;;;;;;;1.27;1.17;;;;;;;8.59;49.83;94943.75;5019885;28;20845;-83
2021/03/13 03:31:54;;;;;;;1.93;0.90;;;;;;;8.59;50.19;94923.22;5021081;28;20238;-83
2021/03/13 03:34:20;;;;;;;0.90;0.90;;;;;;;8.47;50.73;94931.53;5022722;28;20226;-85
2021/03/13 03:36:47;;;;;;;1.27;0.80;;;;;;;8.49;50.81;94932.97;5022053;28;20230;-83
2021/03/13 03:39:13;;;;;;;2.03;1.10;;;;;;;8.47;50.51;94932.34;5021250;28;20234;-82
2021/03/13 03:41:44;;;;;;;0.70;0.70;;;;;;;8.45;51.17;94929.19;5023033;28;20804;-83
2021/03/13 03:44:14;;;;;;;0.80;0.70;;;;;;;8.48;51.06;94933.94;5022494;28;20234;-82
2021/03/13 03:46:41;;;;;;;2.30;0.90;;;;;;;8.52;50.68;94942.88;5021630;28;20234;-83
2021/03/13 03:49:08;;;;;;;3.10;1.17;;;;;;;8.52;51.21;94937.75;5020961;28;20230;-83
2021/03/13 03:51:35;;;;;;;1.50;0.87;;;;;;;8.56;51.14;94941.53;5020897;28;20231;-82
2021/03/13 03:54:05;;;;;;;1.80;0.80;;;;;;;8.43;51.72;94938.81;5020960;28;20207;-82
2021/03/13 03:56:31;;;;;;;1.70;0.87;;;;;;;8.39;51.90;94931.66;5021627;28;20207;-81
2021/03/13 03:58:58;;;;;;;1.30;0.83;;;;;;;8.41;51.97;94930.50;5021846;28;20245;-81
2021/03/13 04:01:26;;;;;;;1.23;0.73;;;;;;;8.37;51.51;94933.59;5020498;28;20233;-83
2021/03/13 04:03:55;;;;;;;1.47;0.90;;;;;;;8.28;51.87;94938.00;5021306;28;20241;-82
2021/03/13 04:06:22;;;;;;;1.50;0.87;;;;;;;8.26;52.14;94939.97;5020907;28;20231;-84
2021/03/13 04:08:52;;;;;;;0.90;0.70;;;;;;;8.14;52.39;94939.59;5020466;28;20207;-82
2021/03/13 04:11:22;;;;;;;2.27;0.90;;;;;;;8.14;51.79;94928.53;5020076;28;20373;-81
2021/03/13 04:13:53;;;;;;;1.07;0.97;;;;;;;8.05;52.57;94925.28;5020596;28;20227;-82
2021/03/13 04:16:20;;;;;;;1.47;0.70;;;;;;;8.14;51.82;94929.34;5020330;28;20223;-83
2021/03/13 04:18:46;;;;;;;2.40;1.03;;;;;;;8.09;52.39;94931.63;5020270;28;20271;-82
2021/03/13 04:21:13;;;;;;;2.80;0.80;;;;;;;8.15;52.08;94920.69;5019479;28;20696;-83
2021/03/13 04:23:43;;;;;;;1.37;0.90;;;;;;;8.00;52.90;94925.03;5020286;28;20230;-83
2021/03/13 04:26:09;;;;;;;1.30;0.70;;;;;;;8.05;52.95;94920.16;5021303;28;20226;-83
2021/03/13 04:28:36;;;;;;;0.70;0.70;;;;;;;8.20;52.12;94917.59;5022134;28;20230;-82
2021/03/13 04:31:03;;;;;;;0.80;0.70;;;;;;;8.14;52.18;94919.09;5020489;28;20227;-83
2021/03/13 04:33:30;;;;;;;1.70;0.80;;;;;;;8.17;52.17;94916.16;5020711;28;20230;-83
2021/03/13 04:35:57;;;;;;;1.63;0.90;;;;;;;8.15;52.44;94925.00;5020330;28;20573;-82
2021/03/13 04:38:24;;;;;;;1.23;0.90;;;;;;;8.11;52.55;94914.31;5021586;28;20219;-84
2021/03/13 04:40:53;;;;;;;1.23;0.80;;;;;;;8.12;52.97;94915.09;5020245;28;20724;-82
2021/03/13 04:43:22;;;;;;;0.63;0.63;;;;;;;8.15;52.91;94900.16;5019257;28;20226;-84
2021/03/13 04:45:49;;;;;;;1.07;0.70;;;;;;;8.21;52.31;94908.94;5020150;28;20334;-84
2021/03/13 04:48:16;;;;;;;1.80;0.80;;;;;;;8.27;52.87;94903.09;5020057;28;20230;-82
2021/03/13 04:50:42;;;;;;;0.60;0.60;;;;;;;8.28;52.30;94908.00;5020292;28;20242;-83
2021/03/13 04:53:09;;;;;;;1.03;0.80;;;;;;;8.23;52.59;94904.41;5018669;28;20252;-83
2021/03/13 04:55:35;;;;;;;1.50;0.70;;;;;;;8.25;52.44;94898.13;5019727;28;20294;-81
2021/03/13 04:58:01;;;;;;;1.07;0.90;;;;;;;8.34;52.32;94895.50;5020136;28;20229;-81
2021/03/13 05:00:27;;;;;;;2.33;0.90;;;;;;;8.39;52.27;94899.13;5018942;28;20238;-83
2021/03/13 05:02:54;;;;;;;1.30;0.80;;;;;;;8.40;51.67;94895.56;5019305;28;20210;-84
2021/03/13 05:05:20;;;;;;;2.17;1.10;;;;;;;8.46;51.14;94894.06;5019802;28;20203;-82
2021/03/13 05:07:47;;;;;;;1.03;0.93;;;;;;;8.42;50.98;94896.19;5019386;28;20234;-82
2021/03/13 05:10:14;;;;;;;1.90;0.97;;;;;;;8.46;50.94;94884.59;5019502;28;20238;-84
2021/03/13 05:12:40;;;;;;;2.00;0.90;;;;;;;8.36;50.93;94894.34;5019008;28;20297;-83
2021/03/13 05:15:09;;;;;;;1.93;0.90;;;;;;;8.45;50.92;94884.78;5020259;28;20262;-82
2021/03/13 05:17:38;;;;;;;2.20;0.80;;;;;;;8.48;50.40;94880.06;5019019;28;20225;-82
2021/03/13 05:20:09;;;;;;;1.77;0.83;;;;;;;8.44;49.96;94880.63;5019293;28;20230;-82
2021/03/13 05:22:37;;;;;;;1.50;0.83;;;;;;;8.53;49.95;94877.75;5019313;28;20653;-84
2021/03/13 05:25:04;;;;;;;1.63;1.20;;;;;;;8.46;49.85;94886.38;5018095;28;20231;-83
2021/03/13 05:27:30;;;;;;;0.80;0.80;;;;;;;8.36;50.00;94873.81;5018380;28;20234;-84
2021/03/13 05:29:59;;;;;;;1.07;0.77;;;;;;;8.43;49.28;94861.88;5018605;28;20306;-82
2021/03/13 05:32:27;;;;;;;1.83;0.93;;;;;;;8.38;49.64;94871.88;5019506;28;20491;-81
2021/03/13 05:34:54;;;;;;;1.50;0.80;;;;;;;8.29;49.74;94872.91;5019333;28;20227;-82
2021/03/13 05:37:20;;;;;;;0.80;0.70;;;;;;;8.24;49.52;94864.97;5017715;28;20541;-82
2021/03/13 05:39:49;;;;;;;0.87;0.80;;;;;;;8.26;49.76;94863.81;5017944;28;20226;-83
2021/03/13 05:42:15;;;;;;;0.73;0.73;;;;;;;8.32;49.33;94862.31;5017933;28;20857;-82
2021/03/13 05:44:42;;;;;;;0.80;0.80;;;;;;;8.34;49.33;94868.06;5017552;28;20498;-82
2021/03/13 05:47:09;;;;;;;1.37;0.83;;;;;;;8.49;49.41;94857.78;5017805;28;20218;-82
2021/03/13 05:49:38;;;;;;;1.00;0.70;;;;;;;8.53;49.15;94857.22;5017630;28;20235;-83
2021/03/13 05:52:07;;;;;;;2.50;0.80;;;;;;;8.59;48.92;94851.38;5017970;28;20226;-81
2021/03/13 05:54:34;;;;;;;1.73;0.80;;;;;;;8.60;48.63;94849.63;5019129;28;20660;-82
2021/03/13 05:57:01;;;;;;;0.80;0.70;;;;;;;8.59;48.54;94845.47;5019395;28;20219;-81
2021/03/13 05:59:28;;;;;;;0.87;0.87;;;;;;;8.58;48.63;94854.94;5018321;28;20199;-83
2021/03/13 06:01:54;;;;;;;1.70;0.80;;;;;;;8.58;48.41;94843.88;5017878;28;20226;-82
2021/03/13 06:04:20;;;;;;;0.70;0.70;;;;;;;8.62;48.49;94837.41;5017862;28;20247;-84
2021/03/13 06:06:49;;;;;;;4.03;1.10;;;;;;;8.78;56.31;94841.50;5016534;28;20250;-81
2021/03/13 06:09:15;;;;;;;1.40;0.70;;;;;;;8.88;48.16;94834.25;5015851;28;20749;-82
2021/03/13 06:11:41;;;;;;;1.60;0.80;;;;;;;8.89;47.69;94835.84;5018366;28;20198;-82
2021/03/13 06:14:07;;;;;;;1.47;0.80;;;;;;;8.84;47.81;94833.06;5014462;28;20245;-83
2021/03/13 06:16:34;;;;;;;1.27;0.90;;;;;;;8.83;47.68;94829.72;5016906;28;20247;-84
2021/03/13 06:19:00;;;;;;;2.40;0.73;;;;;;;8.76;47.74;94831.41;5018076;28;20628;-85
2021/03/13 06:21:28;;;;;;;0.73;0.70;;;;;;;8.78;47.94;94824.31;5015721;28;20440;-84
2021/03/13 06:23:59;;;;;;;0.93;0.87;;;;;;;8.74;47.87;94814.59;5015243;28;20284;-81
2021/03/13 06:26:26;;;;;;;0.70;0.70;;;;;;;8.79;47.96;94820.78;5016553;28;20286;-82
2021/03/13 06:28:54;;;;;;;0.73;0.60;;;;;;;8.88;47.73;94811.97;5014026;28;20225;-82
2021/03/13 06:31:27;;;;;;;0.63;0.63;;;;;;;8.72;47.98;94821.69;5003619;28;20222;-82
2021/03/13 06:33:54;;;;;;;1.50;0.80;;;;;;;8.71;47.63;94814.97;5011413;28;20227;-82
2021/03/13 06:36:24;;;;;;;1.33;0.90;;;;;;;8.72;48.09;94821.69;5011886;28;20568;-84
2021/03/13 06:38:51;;;;;;;2.47;1.07;;;;;;;8.77;47.91;94819.38;5011885;28;20195;-84
2021/03/13 06:41:19;;;;;;;3.17;0.90;;;;;;;8.89;48.55;94821.25;5012107;28;20259;-81
2021/03/13 06:43:46;;;;;;;1.20;0.90;;;;;;;8.86;48.37;94821.63;5013724;28;20219;-82
2021/03/13 06:46:15;;;;;;;1.30;0.90;;;;;;;8.86;48.32;94834.44;5012206;28;20222;-83
2021/03/13 06:48:43;;;;;;;1.00;0.90;;;;;;;8.77;48.71;94814.25;5006961;28;20235;-84
2021/03/13 06:51:20;;;;;;;0.60;0.60;;;;;;;8.82;48.35;94830.69;4997708;28;20229;-82
2021/03/13 06:54:08;;;;;;;0.77;0.77;;;;;;;8.81;48.81;94831.66;4996280;28;20199;-82
2021/03/13 06:56:37;;;;;;;0.73;0.73;;;;;;;8.82;48.69;94819.63;5012440;28;20221;-85
2021/03/13 06:59:17;;;;;;;3.10;1.00;;;;;;;8.96;48.73;94834.16;5008571;28;20302;-81
2021/03/13 07:01:45;;;;;;;0.93;0.63;;;;;;;8.99;48.28;94838.91;4995822;28;20258;-85
2021/03/13 07:04:12;;;;;;;0.77;0.70;;;;;;;9.13;48.37;94848.31;4994629;28;20278;-81
2021/03/13 07:06:44;;;;;;;0.97;0.70;;;;;;;9.13;48.07;94840.63;5012839;28;20226;-82
2021/03/13 07:09:10;;;;;;;0.90;0.70;;;;;;;9.23;47.53;94841.09;5006749;28;20199;-82
2021/03/13 07:11:36;;;;;;;1.37;0.90;;;;;;;9.29;47.68;94839.53;5000080;28;20227;-82
2021/03/13 07:14:02;;;;;;;0.90;0.70;;;;;;;9.60;46.89;94841.75;4999296;28;20656;-82
2021/03/13 07:16:36;;;;;;;0.67;0.67;;;;;;;9.72;46.45;94842.00;4998926;28;20238;-84
2021/03/13 07:19:07;;;;;;;5.30;1.07;;;;;;;9.73;46.22;94831.53;4998875;28;20359;-82
2021/03/13 07:21:34;;;;;;;2.63;0.70;;;;;;;9.66;46.84;94836.63;4998977;28;20227;-83
2021/03/13 07:24:03;;;;;;;0.70;0.70;;;;;;;9.75;46.85;94839.06;5002375;28;20231;-83
2021/03/13 07:26:35;;;;;;;0.83;0.63;;;;;;;9.72;46.49;94836.84;4998313;28;20195;-84
2021/03/13 07:29:02;;;;;;;0.77;0.77;;;;;;;9.74;46.63;94843.41;4996534;28;20235;-84
2021/03/13 07:31:35;;;;;;;1.23;0.70;;;;;;;9.68;46.86;94831.28;5014304;28;20301;-83
2021/03/13 07:34:04;;;;;;;2.30;0.70;;;;;;;9.74;46.53;94833.13;5002984;28;20235;-84
2021/03/13 07:36:35;;;;;;;0.70;0.70;;;;;;;9.81;46.39;94840.88;4994403;28;20227;-85
2021/03/13 07:39:11;;;;;;;1.43;0.70;;;;;;;9.97;46.44;94832.84;5000640;28;20674;-84
2021/03/13 07:41:37;;;;;;;1.30;0.80;;;;;;;10.14;46.62;94834.09;5015466;28;20233;-83
2021/03/13 07:44:05;;;;;;;0.93;0.70;;;;;;;10.03;45.76;94830.28;5007941;28;20309;-84
2021/03/13 07:46:31;;;;;;;1.23;0.83;;;;;;;9.94;46.38;94836.59;5015156;28;20234;-83
2021/03/13 07:48:57;;;;;;;0.60;0.60;;;;;;;9.81;46.77;94831.38;5005926;28;20234;-83
2021/03/13 07:51:27;;;;;;;1.57;0.87;;;;;;;9.90;46.40;94827.66;5009252;28;20241;-83
2021/03/13 07:53:53;;;;;;;0.70;0.70;;;;;;;9.88;46.70;94827.06;5003594;28;20191;-82
2021/03/13 07:56:22;;;;;;;2.17;0.80;;;;;;;9.88;46.62;94828.84;5013066;28;20215;-82
2021/03/13 07:58:48;;;;;;;1.13;0.70;;;;;;;9.89;46.24;94820.13;5010901;28;20218;-82
2021/03/13 08:01:14;;;;;;;2.20;0.80;;;;;;;9.84;46.50;94825.84;5014710;28;20775;-84
2021/03/13 08:03:44;;;;;;;1.57;0.77;;;;;;;9.93;46.28;94821.34;5017041;28;20227;-84
2021/03/13 08:06:12;;;;;;;1.00;0.80;;;;;;;9.80;46.00;94819.53;5014807;28;20666;-84
2021/03/13 08:08:39;;;;;;;0.60;0.60;;;;;;;9.77;46.56;94816.53;5010608;28;20225;-85
2021/03/13 08:11:06;;;;;;;0.70;0.70;;;;;;;9.72;46.59;94811.16;5005430;28;20293;-87
2021/03/13 08:14:02;;;;;;;1.83;0.60;;;;;;;9.86;46.66;94812.81;5012925;28;20219;-85
2021/03/13 08:16:41;;;;;;;1.37;0.73;;;;;;;9.77;45.81;94809.63;5012779;28;20226;-84
2021/03/13 08:19:32;;;;;;;0.80;0.73;;;;;;;9.86;45.79;94811.03;5012700;28;20314;-86
2021/03/13 08:22:23;;;;;;;1.20;0.90;;;;;;;10.00;46.07;94806.75;4994216;28;20929;-86
2021/03/13 08:24:51;;;;;;;1.90;0.73;;;;;;;10.14;46.19;94799.88;4979117;28;20242;-84
2021/03/13 08:27:38;;;;;;;0.80;0.67;;;;;;;10.03;45.89;94807.13;5010208;28;20249;-84
2021/03/13 08:30:19;;;;;;;2.50;0.87;;;;;;;9.97;45.89;94796.84;5012753;28;20242;-84
2021/03/13 08:33:04;;;;;;;0.80;0.80;;;;;;;10.04;46.02;94798.44;5011254;28;20249;-86
2021/03/13 08:35:50;;;;;;;0.97;0.80;;;;;;;10.05;45.95;94794.09;5007388;28;20237;-84
2021/03/13 08:38:59;;;;;;;0.80;0.80;;;;;;;10.08;45.89;94796.28;4994438;28;20254;-84
2021/03/13 08:41:53;;;;;;;2.20;0.70;;;;;;;10.17;45.83;94784.06;5001887;28;20744;-83
2021/03/13 08:44:33;;;;;;;2.77;1.00;;;;;;;10.09;46.16;94794.50;4987908;28;20230;-85
2021/03/13 08:47:01;;;;;;;1.27;0.80;;;;;;;9.98;45.74;94780.44;5012168;28;20230;-83
2021/03/13 08:49:40;;;;;;;1.37;0.80;;;;;;;9.98;45.62;94768.38;5008225;28;20227;-83
2021/03/13 08:52:24;;;;;;;0.90;0.90;;;;;;;10.07;45.71;94757.91;5002055;28;20710;-83
2021/03/13 08:54:51;;;;;;;0.77;0.70;;;;;;;10.03;45.05;94766.00;5012032;28;20226;-84
2021/03/13 08:57:39;;;;;;;1.30;0.73;;;;;;;10.03;45.72;94755.72;5012634;28;20222;-85
2021/03/13 09:00:07;;;;;;;2.03;0.73;;;;;;;10.02;45.41;94738.69;5012359;28;20237;-85
2021/03/13 09:02:36;;;;;;;1.90;0.87;;;;;;;10.00;45.17;94745.03;5012967;28;20293;-84
2021/03/13 09:05:04;;;;;;;1.87;0.90;;;;;;;10.11;44.79;94728.25;5012767;28;20230;-83
2021/03/13 09:07:30;;;;;;;2.47;0.97;;;;;;;10.18;44.55;94714.41;5009910;28;20235;-83
2021/03/13 09:09:58;;;;;;;0.90;0.90;;;;;;;10.26;44.45;94708.31;4993388;28;20242;-83
2021/03/13 09:12:28;;;;;;;3.23;1.00;;;;;;;10.28;44.43;94711.47;4993036;28;20227;-83
2021/03/13 09:14:55;;;;;;;1.60;1.10;;;;;;;10.29;44.63;94695.84;4992604;28;20199;-84
2021/03/13 09:17:23;;;;;;;1.30;0.80;;;;;;;10.24;43.54;94698.22;4992789;28;20232;-83
2021/03/13 09:19:51;;;;;;;1.87;1.10;;;;;;;10.22;44.21;94679.59;4992282;28;20232;-83
2021/03/13 09:22:18;;;;;;;1.07;0.83;;;;;;;10.25;44.19;94683.56;4992085;28;20237;-83
2021/03/13 09:24:52;;;;;;;2.33;1.03;;;;;;;10.39;44.01;94677.47;4991334;28;20243;-83
2021/03/13 09:27:23;;;;;;;1.70;0.83;;;;;;;10.34;43.63;94675.47;4991818;28;20605;-83
2021/03/13 09:29:51;;;;;;;2.67;1.70;;;;;;;10.46;43.87;94664.59;4991281;28;20333;-83
2021/03/13 09:32:20;;;;;;;1.03;0.90;;;;;;;10.52;43.66;94668.94;4998523;28;21053;-83
2021/03/13 09:34:48;;;;;;;1.20;0.80;;;;;;;10.48;43.07;94662.59;5011579;28;20235;-83
2021/03/13 09:37:17;;;;;;;1.30;0.80;;;;;;;10.50;43.05;94656.28;5012945;28;20304;-82
2021/03/13 09:39:47;;;;;;;0.93;0.80;;;;;;;10.59;42.98;94651.69;5012048;28;20234;-84
2021/03/13 09:42:15;;;;;;;1.63;0.77;;;;;;;10.76;42.76;94652.13;5011537;28;20207;-82
2021/03/13 09:44:44;;;;;;;3.17;0.80;;;;;;;10.88;42.62;94645.34;5010819;28;20226;-82
2021/03/13 09:47:17;;;;;;;1.60;0.90;;;;;;;10.96;42.02;94655.44;5011298;28;20694;-83
2021/03/13 09:49:45;;;;;;;0.70;0.70;;;;;;;11.05;42.24;94642.13;5010783;28;20241;-83
2021/03/13 09:52:12;;;;;;;1.77;1.10;;;;;;;11.18;41.92;94643.88;5011229;28;20237;-83
2021/03/13 09:54:39;;;;;;;1.00;0.80;;;;;;;11.20;41.43;94647.03;5010621;28;20235;-83
2021/03/13 09:57:12;;;;;;;1.10;1.00;;;;;;;11.15;41.52;94628.84;5011274;28;20207;-83
2021/03/13 09:59:39;;;;;;;1.33;0.80;;;;;;;11.18;41.11;94635.34;5010815;28;20225;-84
2021/03/13 10:02:05;;;;;;;0.90;0.87;;;;;;;11.21;40.39;94633.16;5010671;28;20226;-82
2021/03/13 10:04:32;;;;;;;1.47;0.70;;;;;;;11.25;40.44;94628.41;5010042;28;20231;-81
2021/03/13 10:06:59;;;;;;;0.90;0.70;;;;;;;11.31;40.05;94622.44;5010170;28;20229;-82
2021/03/13 10:09:25;;;;;;;0.83;0.70;;;;;;;11.46;39.97;94620.38;5009496;28;20599;-81
2021/03/13 10:11:51;;;;;;;1.00;0.80;;;;;;;11.51;40.38;94615.41;5011174;28;20206;-84
2021/03/13 10:14:18;;;;;;;0.70;0.70;;;;;;;11.52;39.66;94622.16;5002519;28;20215;-82
2021/03/13 10:16:44;;;;;;;1.20;0.80;;;;;;;11.43;39.88;94620.78;5010826;28;20223;-82
2021/03/13 10:19:40;;;;;;;0.90;0.90;;;;;;;11.31;39.28;94617.28;5006832;28;20313;-82
2021/03/13 10:22:12;;;;;;;0.87;0.70;;;;;;;11.41;39.75;94625.38;5003699;28;20309;-82
2021/03/13 10:24:42;;;;;;;1.20;0.73;;;;;;;11.35;39.81;94605.59;5001305;28;20238;-84
2021/03/13 10:27:08;;;;;;;2.67;0.87;;;;;;;11.42;39.81;94609.69;4997966;28;20266;-84
2021/03/13 10:29:34;;;;;;;1.27;1.13;;;;;;;11.53;40.12;94608.28;5010763;28;20203;-84
2021/03/13 10:32:01;;;;;;;0.80;0.80;;;;;;;11.39;39.38;94604.94;5010759;28;20226;-85
2021/03/13 10:34:34;;;;;;;1.97;1.00;;;;;;;11.48;39.17;94609.88;5010043;28;20226;-84
2021/03/13 10:37:01;;;;;;;2.13;1.93;;;;;;;11.58;39.09;94608.44;5011554;28;20296;-84
2021/03/13 10:39:27;;;;;;;2.27;0.90;;;;;;;11.57;39.02;94608.63;5011428;28;20649;-84
2021/03/13 10:41:57;;;;;;;1.27;1.00;;;;;;;11.44;39.38;94606.91;5015797;28;20218;-84
2021/03/13 10:44:23;;;;;;;1.53;1.00;;;;;;;11.42;39.15;94612.28;5010169;28;20227;-84
2021/03/13 10:46:49;;;;;;;0.70;0.70;;;;;;;11.57;39.85;94599.09;5012956;28;20371;-84
2021/03/13 10:49:42;;;;;;;1.30;0.80;;;;;;;11.64;39.34;94599.09;5002700;28;20309;-84
2021/03/13 10:52:27;;;;;;;1.70;1.00;;;;;;;11.67;39.52;94602.03;5012366;28;20617;-83
2021/03/13 10:54:53;;;;;;;0.80;0.70;;;;;;;11.73;39.10;94582.38;5012381;28;20222;-83
2021/03/13 10:57:19;;;;;;;1.03;0.93;;;;;;;11.78;39.46;94598.03;5015790;28;20238;-83
2021/03/13 10:59:47;;;;;;;1.40;1.07;;;;;;;11.70;39.14;94585.38;5015075;28;20234;-84
2021/03/13 11:02:14;;;;;;;0.80;0.80;;;;;;;11.58;39.56;94592.16;5014942;28;20222;-84
2021/03/13 11:04:42;;;;;;;0.87;0.77;;;;;;;11.69;40.04;94581.22;5014490;28;20780;-85
2021/03/13 11:07:12;;;;;;;0.80;0.80;;;;;;;11.76;39.84;94579.41;5003253;28;20227;-84
2021/03/13 11:09:38;;;;;;;2.47;1.07;;;;;;;11.87;40.04;94596.78;4993612;28;20235;-83
2021/03/13 11:12:07;;;;;;;1.53;0.80;;;;;;;12.02;39.14;94596.50;5002055;28;20194;-83
2021/03/13 11:14:33;;;;;;;0.80;0.80;;;;;;;12.15;39.36;94580.91;5014115;28;20693;-84
2021/03/13 11:16:59;;;;;;;4.83;3.00;;;;;;;12.17;38.73;94563.41;5005871;28;20227;-85
2021/03/13 11:19:26;;;;;;;1.70;1.13;;;;;;;12.29;39.01;94561.75;5009733;28;20230;-86
2021/03/13 11:21:52;;;;;;;2.53;1.00;;;;;;;12.31;38.94;94554.59;5009070;28;20227;-86
2021/03/13 11:24:19;;;;;;;1.77;0.90;;;;;;;12.25;38.11;94541.75;4995453;28;20265;-85
2021/03/13 11:26:45;;;;;;;0.60;0.60;;;;;;;12.23;38.36;94544.53;5011431;28;20191;-86
2021/03/13 11:29:11;;;;;;;2.30;1.00;;;;;;;12.27;38.41;94532.00;5014030;28;20234;-85
2021/03/13 11:31:38;;;;;;;1.73;0.90;;;;;;;12.14;38.05;94519.97;5012079;28;20762;-84
2021/03/13 11:34:04;;;;;;;0.93;0.80;;;;;;;12.22;38.34;94514.56;5013658;28;20230;-86
2021/03/13 11:36:31;;;;;;;0.83;0.80;;;;;;;12.27;37.54;94494.06;5011234;28;20230;-84
2021/03/13 11:38:57;;;;;;;2.23;0.80;;;;;;;12.33;37.84;94493.19;5006925;28;20204;-85
2021/03/13 11:41:23;;;;;;;2.03;1.27;;;;;;;12.42;36.38;94491.94;4995117;28;20251;-84
2021/03/13 11:43:49;;;;;;;0.70;0.70;;;;;;;12.55;36.17;94483.25;5011843;28;20318;-85
2021/03/13 11:46:15;;;;;;;3.43;1.00;;;;;;;12.64;35.67;94468.28;5015088;28;20283;-83
2021/03/13 11:48:42;;;;;;;1.63;0.90;;;;;;;12.63;35.01;94475.22;4997103;28;20227;-85